Time,TemperatureF,DewpointF,PressureIn,WindDirection,WindDirectionDegrees,WindSpeedMPH,WindSpeedGustMPH,Humidity,HourlyPrecipIn,Conditions,Clouds,dailyrainin,SoftwareType,DateUTC
2013-05-22 06:54:00,63.7,62.5,29.83,West,259,1.0,3.0,96,0.00,,,0.05,Wunderground v.1.15,2013-05-22 11:54:00,
2013-05-22 06:55:00,63.6,62.4,29.83,West,259,1.0,3.0,96,0.00,,,0.05,Wunderground v.1.15,2013-05-22 11:55:00,
2013-05-22 06:58:00,63.8,62.6,29.83,West,261,2.0,4.0,96,0.00,,,0.05,Wunderground v.1.15,2013-05-22 11:58:00,
2013-05-22 07:05:00,63.8,62.6,29.83,WSW,256,2.0,2.0,96,0.00,,,0.05,Wunderground v.1.15,2013-05-22 12:05:00,
2013-05-22 07:09:00,64.0,62.5,29.84,SW,220,3.0,4.0,95,0.00,,,0.05,Wunderground v.1.15,2013-05-22 12:09:00,
2013-05-22 07:14:00,63.8,62.3,29.84,SW,226,3.0,4.0,95,0.00,,,0.05,Wunderground v.1.15,2013-05-22 12:14:00,
2013-05-22 07:20:00,63.9,62.4,29.84,SW,227,3.0,6.0,95,0.00,,,0.05,Wunderground v.1.15,2013-05-22 12:20:00,
2013-05-22 07:25:00,63.9,62.4,29.84,SW,234,3.0,3.0,95,0.00,,,0.05,Wunderground v.1.15,2013-05-22 12:25:00,
2013-05-22 07:31:00,64.1,62.6,29.84,SW,234,3.0,4.0,95,0.00,,,0.05,Wunderground v.1.15,2013-05-22 12:31:00,
2013-05-22 07:37:00,64.2,63.0,29.84,WSW,240,3.0,3.0,96,0.00,,,0.05,Wunderground v.1.15,2013-05-22 12:37:00,
2013-05-22 07:43:00,64.4,62.9,29.84,WSW,244,3.0,3.0,95,0.00,,,0.06,Wunderground v.1.15,2013-05-22 12:43:00,
2013-05-22 07:49:00,64.5,63.0,29.84,WSW,255,3.0,5.0,95,0.00,,,0.06,Wunderground v.1.15,2013-05-22 12:49:00,
2013-05-22 07:55:00,64.6,63.1,29.83,SW,231,3.0,4.0,95,0.00,,,0.06,Wunderground v.1.15,2013-05-22 12:55:00,
2013-05-22 08:00:00,64.8,63.3,29.84,West,262,4.0,5.0,95,0.00,,,0.06,Wunderground v.1.15,2013-05-22 13:00:00,
2013-05-22 08:06:00,64.8,63.3,29.84,WSW,251,5.0,6.0,95,0.00,,,0.06,Wunderground v.1.15,2013-05-22 13:06:00,
2013-05-22 08:11:00,64.9,63.4,29.84,WSW,246,5.0,7.0,95,0.00,,,0.06,Wunderground v.1.15,2013-05-22 13:11:00,
2013-05-22 08:16:00,65.1,63.6,29.84,WSW,254,5.0,7.0,95,0.00,,,0.06,Wunderground v.1.15,2013-05-22 13:16:00,
2013-05-22 08:22:00,65.4,63.6,29.84,WSW,256,6.0,6.0,94,0.00,,,0.06,Wunderground v.1.15,2013-05-22 13:22:00,
2013-05-22 08:27:00,65.6,63.8,29.84,West,267,6.0,7.0,94,0.00,,,0.06,Wunderground v.1.15,2013-05-22 13:27:00,
2013-05-22 08:32:00,65.8,63.7,29.84,WSW,249,6.0,8.0,93,0.00,,,0.06,Wunderground v.1.15,2013-05-22 13:32:00,
2013-05-22 10:14:00,68.2,65.2,29.86,West,259,6.0,8.0,90,0.00,,,0.06,Wunderground v.1.15,2013-05-22 15:14:00,
2013-05-22 10:20:00,68.4,65.0,29.86,WSW,244,6.0,8.0,89,0.00,,,0.06,Wunderground v.1.15,2013-05-22 15:20:00,
2013-05-22 10:26:00,68.9,65.5,29.86,WSW,239,7.0,8.0,89,0.00,,,0.06,Wunderground v.1.15,2013-05-22 15:26:00,
2013-05-22 10:31:00,69.4,65.7,29.86,West,275,8.0,11.0,88,0.00,,,0.06,Wunderground v.1.15,2013-05-22 15:31:00,
2013-05-22 10:37:00,69.6,65.6,29.86,West,259,9.0,10.0,87,0.00,,,0.06,Wunderground v.1.15,2013-05-22 15:37:00,
2013-05-22 10:42:00,69.9,66.2,29.86,WSW,239,8.0,10.0,88,0.00,,,0.06,Wunderground v.1.15,2013-05-22 15:42:00,
2013-05-22 10:48:00,69.9,65.5,29.86,WSW,252,8.0,11.0,86,0.00,,,0.06,Wunderground v.1.15,2013-05-22 15:48:00,
2013-05-22 10:54:00,69.9,65.5,29.86,West,259,8.0,10.0,86,0.00,,,0.06,Wunderground v.1.15,2013-05-22 15:54:00,
2013-05-22 10:59:00,69.9,65.5,29.86,West,263,9.0,12.0,86,0.00,,,0.06,Wunderground v.1.15,2013-05-22 15:59:00,
2013-05-22 11:04:00,69.9,65.2,29.86,WSW,251,9.0,12.0,85,0.00,,,0.06,Wunderground v.1.15,2013-05-22 16:04:00,
2013-05-22 11:10:00,70.0,66.0,29.87,WSW,238,9.0,12.0,87,0.00,,,0.06,Wunderground v.1.15,2013-05-22 16:10:00,
2013-05-22 11:15:00,70.0,65.6,29.87,SW,233,9.0,12.0,86,0.00,,,0.06,Wunderground v.1.15,2013-05-22 16:15:00,
2013-05-22 11:20:00,70.5,66.1,29.87,WSW,247,9.0,12.0,86,0.00,,,0.06,Wunderground v.1.15,2013-05-22 16:20:00,
2013-05-22 11:25:00,70.8,66.4,29.87,WSW,237,7.0,9.0,86,0.00,,,0.06,Wunderground v.1.15,2013-05-22 16:25:00,
2013-05-22 11:31:00,71.3,66.9,29.86,South,174,7.0,9.0,86,0.00,,,0.06,Wunderground v.1.15,2013-05-22 16:31:00,
2013-05-22 11:36:00,71.5,66.4,29.87,SW,236,8.0,12.0,84,0.00,,,0.06,Wunderground v.1.15,2013-05-22 16:36:00,
2013-05-22 11:42:00,71.5,66.1,29.87,WSW,240,9.0,10.0,83,0.00,,,0.06,Wunderground v.1.15,2013-05-22 16:42:00,
2013-05-22 11:47:00,71.9,66.8,29.87,West,267,10.0,10.0,84,0.00,,,0.06,Wunderground v.1.15,2013-05-22 16:47:00,
2013-05-22 11:53:00,72.1,66.6,29.87,WSW,249,10.0,11.0,83,0.00,,,0.06,Wunderground v.1.15,2013-05-22 16:53:00,
2013-05-22 11:59:00,72.1,65.9,29.87,WSW,248,10.0,12.0,81,0.00,,,0.06,Wunderground v.1.15,2013-05-22 16:59:00,
2013-05-22 12:05:00,72.5,66.3,29.87,WSW,254,10.0,14.0,81,0.00,,,0.06,Wunderground v.1.15,2013-05-22 17:05:00,
2013-05-22 12:10:00,72.3,66.5,29.87,WSW,243,10.0,10.0,82,0.00,,,0.06,Wunderground v.1.15,2013-05-22 17:10:00,
2013-05-22 12:15:00,72.0,66.2,29.87,SW,235,9.0,10.0,82,0.00,,,0.06,Wunderground v.1.15,2013-05-22 17:15:00,
2013-05-22 12:21:00,72.2,66.7,29.87,SSW,213,8.0,8.0,83,0.00,,,0.06,Wunderground v.1.15,2013-05-22 17:21:00,
2013-05-22 12:27:00,72.8,66.6,29.86,WSW,252,9.0,10.0,81,0.00,,,0.06,Wunderground v.1.15,2013-05-22 17:27:00,
2013-05-22 12:32:00,73.0,66.8,29.87,WSW,251,9.0,10.0,81,0.00,,,0.06,Wunderground v.1.15,2013-05-22 17:32:00,
2013-05-22 12:37:00,73.4,66.5,29.86,WSW,237,8.0,13.0,79,0.00,,,0.06,Wunderground v.1.15,2013-05-22 17:37:00,
2013-05-22 12:42:00,73.4,66.5,29.86,WSW,240,8.0,10.0,79,0.00,,,0.06,Wunderground v.1.15,2013-05-22 17:42:00,
2013-05-22 12:47:00,73.2,66.3,29.86,WSW,255,9.0,12.0,79,0.00,,,0.06,Wunderground v.1.15,2013-05-22 17:47:00,
2013-05-22 12:52:00,73.4,66.5,29.86,West,261,9.0,9.0,79,0.00,,,0.06,Wunderground v.1.15,2013-05-22 17:52:00,
2013-05-22 12:57:00,74.4,67.1,29.86,WSW,242,9.0,13.0,78,0.00,,,0.06,Wunderground v.1.15,2013-05-22 17:57:00,
2013-05-22 14:10:00,72.7,65.8,29.85,SW,229,8.0,8.0,79,0.00,,,0.06,Wunderground v.1.15,2013-05-22 19:10:00,
2013-05-22 14:16:00,72.5,66.3,29.85,SW,236,7.0,8.0,81,0.00,,,0.06,Wunderground v.1.15,2013-05-22 19:16:00,
2013-05-22 14:22:00,72.4,66.9,29.85,West,272,7.0,9.0,83,0.00,,,0.06,Wunderground v.1.15,2013-05-22 19:22:00,
2013-05-22 14:28:00,71.8,66.4,29.85,WSW,252,7.0,9.0,83,0.00,,,0.06,Wunderground v.1.15,2013-05-22 19:28:00,
2013-05-22 14:33:00,71.2,66.5,29.85,SW,232,7.0,7.0,85,0.00,,,0.06,Wunderground v.1.15,2013-05-22 19:33:00,
2013-05-22 14:38:00,70.9,66.5,29.85,West,260,6.0,7.0,86,0.00,,,0.06,Wunderground v.1.15,2013-05-22 19:38:00,
2013-05-22 14:44:00,71.1,66.7,29.85,WSW,243,5.0,7.0,86,0.00,,,0.06,Wunderground v.1.15,2013-05-22 19:44:00,
2013-05-22 14:50:00,71.7,67.3,29.85,SW,227,5.0,5.0,86,0.00,,,0.06,Wunderground v.1.15,2013-05-22 19:50:00,
2013-05-22 14:56:00,72.3,67.2,29.84,SW,232,6.0,8.0,84,0.00,,,0.06,Wunderground v.1.15,2013-05-22 19:56:00,
2013-05-22 15:02:00,73.2,66.7,29.83,SW,222,7.0,7.0,80,0.00,,,0.06,Wunderground v.1.15,2013-05-22 20:02:00,
2013-05-22 15:07:00,74.1,68.6,29.84,WSW,255,7.0,10.0,83,0.00,,,0.06,Wunderground v.1.15,2013-05-22 20:07:00,
2013-05-22 15:13:00,75.0,68.0,29.84,West,267,8.0,10.0,79,0.00,,,0.06,Wunderground v.1.15,2013-05-22 20:13:00,
2013-05-22 15:19:00,74.8,67.5,29.84,WSW,256,9.0,11.0,78,0.00,,,0.06,Wunderground v.1.15,2013-05-22 20:19:00,
2013-05-22 15:24:00,75.0,68.0,29.84,West,265,9.0,11.0,79,0.00,,,0.06,Wunderground v.1.15,2013-05-22 20:24:00,
2013-05-22 15:55:00,75.2,67.1,29.83,West,277,11.0,12.0,76,0.00,,,0.06,Wunderground v.1.15,2013-05-22 20:55:00,
2013-05-22 16:00:00,75.1,66.6,29.82,SW,232,10.0,10.0,75,0.00,,,0.06,Wunderground v.1.15,2013-05-22 21:00:00,
2013-05-22 16:06:00,75.3,66.8,29.83,West,269,9.0,10.0,75,0.00,,,0.06,Wunderground v.1.15,2013-05-22 21:06:00,
2013-05-22 16:11:00,75.0,67.3,29.82,WSW,248,9.0,9.0,77,0.00,,,0.06,Wunderground v.1.15,2013-05-22 21:11:00,
2013-05-22 16:16:00,75.6,67.1,29.82,WSW,254,8.0,10.0,75,0.00,,,0.06,Wunderground v.1.15,2013-05-22 21:16:00,
2013-05-22 16:22:00,75.0,66.5,29.82,West,259,8.0,9.0,75,0.00,,,0.06,Wunderground v.1.15,2013-05-22 21:22:00,
2013-05-22 16:27:00,74.8,66.0,29.82,WNW,288,7.0,9.0,74,0.00,,,0.06,Wunderground v.1.15,2013-05-22 21:27:00,
2013-05-22 16:32:00,75.0,66.5,29.82,WSW,246,8.0,8.0,75,0.00,,,0.06,Wunderground v.1.15,2013-05-22 21:32:00,
2013-05-22 16:38:00,75.8,66.9,29.82,SW,230,8.0,8.0,74,0.00,,,0.06,Wunderground v.1.15,2013-05-22 21:38:00,
2013-05-22 16:43:00,75.0,66.9,29.82,WSW,245,7.0,8.0,76,0.00,,,0.06,Wunderground v.1.15,2013-05-22 21:43:00,
2013-05-22 16:49:00,74.7,66.2,29.82,WSW,254,8.0,10.0,75,0.00,,,0.06,Wunderground v.1.15,2013-05-22 21:49:00,
2013-05-22 16:54:00,74.9,66.8,29.82,WSW,251,8.0,9.0,76,0.00,,,0.06,Wunderground v.1.15,2013-05-22 21:54:00,
2013-05-22 17:00:00,75.4,65.3,29.82,West,267,9.0,12.0,71,0.00,,,0.06,Wunderground v.1.15,2013-05-22 22:00:00,
2013-05-22 17:06:00,74.6,65.8,29.82,WSW,254,9.0,12.0,74,0.00,,,0.06,Wunderground v.1.15,2013-05-22 22:06:00,
2013-05-22 17:11:00,74.0,65.6,29.82,West,272,7.0,8.0,75,0.00,,,0.06,Wunderground v.1.15,2013-05-22 22:11:00,
2013-05-22 17:16:00,73.8,65.8,29.82,WSW,250,6.0,9.0,76,0.00,,,0.06,Wunderground v.1.15,2013-05-22 22:16:00,
2013-05-22 17:21:00,73.7,65.3,29.82,WSW,252,7.0,7.0,75,0.00,,,0.06,Wunderground v.1.15,2013-05-22 22:21:00,
2013-05-22 17:27:00,73.9,65.9,29.82,WSW,255,7.0,8.0,76,0.00,,,0.06,Wunderground v.1.15,2013-05-22 22:27:00,
2013-05-22 17:32:00,74.4,66.3,29.82,West,271,7.0,7.0,76,0.00,,,0.06,Wunderground v.1.15,2013-05-22 22:32:00,
2013-05-22 17:37:00,74.8,66.0,29.82,West,269,6.0,8.0,74,0.00,,,0.06,Wunderground v.1.15,2013-05-22 22:37:00,
2013-05-22 17:43:00,75.4,65.3,29.82,West,277,6.0,10.0,71,0.00,,,0.06,Wunderground v.1.15,2013-05-22 22:43:00,
2013-05-22 17:48:00,75.5,66.6,29.82,WSW,256,7.0,10.0,74,0.00,,,0.06,Wunderground v.1.15,2013-05-22 22:48:00,
2013-05-22 17:53:00,75.4,66.1,29.82,West,275,7.0,11.0,73,0.00,,,0.06,Wunderground v.1.15,2013-05-22 22:53:00,
2013-05-22 17:58:00,75.2,65.9,29.82,WSW,255,7.0,11.0,73,0.00,,,0.06,Wunderground v.1.15,2013-05-22 22:58:00,
2013-05-22 18:03:00,74.9,66.8,29.82,WSW,255,7.0,9.0,76,0.00,,,0.06,Wunderground v.1.15,2013-05-22 23:03:00,
2013-05-22 18:08:00,75.2,65.9,29.82,West,261,6.0,9.0,73,0.00,,,0.06,Wunderground v.1.15,2013-05-22 23:08:00,